sensor_id;sensor_type;location;lat;lon;timestamp;P1;durP1;ratioP1;P2;durP2;ratioP2
5379;SDS011;2713;42.680;23.310;2023-07-30T00:02:14;5.60;;;5.00;;
5379;SDS011;2713;42.680;23.310;2023-07-30T00:04:41;6.00;;;5.20;;
5379;SDS011;2713;42.680;23.310;2023-07-30T00:07:08;5.57;;;5.07;;
5379;SDS011;2713;42.680;23.310;2023-07-30T00:09:35;6.13;;;5.53;;
5379;SDS011;2713;42.680;23.310;2023-07-30T00:12:03;7.10;;;5.30;;
5379;SDS011;2713;42.680;23.310;2023-07-30T00:14:31;8.13;;;5.53;;
5379;SDS011;2713;42.680;23.310;2023-07-30T00:16:58;5.40;;;5.00;;
5379;SDS011;2713;42.680;23.310;2023-07-30T00:19:25;6.10;;;5.50;;
5379;SDS011;2713;42.680;23.310;2023-07-30T00:21:51;5.60;;;5.00;;
5379;SDS011;2713;42.680;23.310;2023-07-30T00:24:18;5.40;;;5.00;;
5379;SDS011;2713;42.680;23.310;2023-07-30T00:26:45;5.73;;;5.10;;
5379;SDS011;2713;42.680;23.310;2023-07-30T00:29:13;6.27;;;4.57;;
5379;SDS011;2713;42.680;23.310;2023-07-30T00:31:40;5.93;;;5.23;;
5379;SDS011;2713;42.680;23.310;2023-07-30T00:34:07;8.03;;;5.13;;
5379;SDS011;2713;42.680;23.310;2023-07-30T00:36:34;6.13;;;5.50;;
5379;SDS011;2713;42.680;23.310;2023-07-30T00:39:01;6.03;;;5.53;;
5379;SDS011;2713;42.680;23.310;2023-07-30T00:41:28;5.40;;;4.90;;
5379;SDS011;2713;42.680;23.310;2023-07-30T00:43:54;6.53;;;5.60;;
5379;SDS011;2713;42.680;23.310;2023-07-30T00:46:22;5.23;;;4.83;;
5379;SDS011;2713;42.680;23.310;2023-07-30T00:48:49;5.90;;;5.40;;
5379;SDS011;2713;42.680;23.310;2023-07-30T00:51:16;5.90;;;5.13;;
5379;SDS011;2713;42.680;23.310;2023-07-30T00:53:43;5.07;;;4.67;;
5379;SDS011;2713;42.680;23.310;2023-07-30T00:56:10;5.30;;;4.80;;
5379;SDS011;2713;42.680;23.310;2023-07-30T00:58:37;4.80;;;4.40;;
5379;SDS011;2713;42.680;23.310;2023-07-30T01:01:04;6.50;;;4.90;;
5379;SDS011;2713;42.680;23.310;2023-07-30T01:03:33;5.57;;;5.07;;
5379;SDS011;2713;42.680;23.310;2023-07-30T01:06:00;5.40;;;5.00;;
5379;SDS011;2713;42.680;23.310;2023-07-30T01:08:27;5.73;;;5.23;;
5379;SDS011;2713;42.680;23.310;2023-07-30T01:10:54;5.37;;;4.13;;
5379;SDS011;2713;42.680;23.310;2023-07-30T01:13:22;6.20;;;5.37;;
5379;SDS011;2713;42.680;23.310;2023-07-30T01:15:49;6.37;;;4.70;;
5379;SDS011;2713;42.680;23.310;2023-07-30T01:18:16;5.87;;;4.80;;
5379;SDS011;2713;42.680;23.310;2023-07-30T01:20:44;5.10;;;4.70;;
5379;SDS011;2713;42.680;23.310;2023-07-30T01:23:12;5.10;;;4.70;;
5379;SDS011;2713;42.680;23.310;2023-07-30T01:25:39;5.13;;;4.70;;
5379;SDS011;2713;42.680;23.310;2023-07-30T01:28:08;4.77;;;4.37;;
5379;SDS011;2713;42.680;23.310;2023-07-30T01:30:42;5.17;;;4.67;;
5379;SDS011;2713;42.680;23.310;2023-07-30T01:33:13;5.13;;;4.63;;
5379;SDS011;2713;42.680;23.310;2023-07-30T01:35:40;5.30;;;4.90;;
5379;SDS011;2713;42.680;23.310;2023-07-30T01:38:09;5.30;;;4.80;;
5379;SDS011;2713;42.680;23.310;2023-07-30T01:40:38;5.53;;;5.03;;
5379;SDS011;2713;42.680;23.310;2023-07-30T01:43:06;5.83;;;5.30;;
5379;SDS011;2713;42.680;23.310;2023-07-30T01:45:33;5.90;;;5.40;;
5379;SDS011;2713;42.680;23.310;2023-07-30T01:48:00;5.17;;;4.67;;
5379;SDS011;2713;42.680;23.310;2023-07-30T01:50:27;5.80;;;4.90;;
5379;SDS011;2713;42.680;23.310;2023-07-30T01:52:54;8.70;;;5.50;;
5379;SDS011;2713;42.680;23.310;2023-07-30T01:55:21;5.27;;;4.77;;
5379;SDS011;2713;42.680;23.310;2023-07-30T01:57:49;6.43;;;5.07;;
5379;SDS011;2713;42.680;23.310;2023-07-30T02:00:16;5.20;;;4.80;;
5379;SDS011;2713;42.680;23.310;2023-07-30T02:02:42;5.30;;;4.90;;
5379;SDS011;2713;42.680;23.310;2023-07-30T02:05:09;5.63;;;4.80;;
5379;SDS011;2713;42.680;23.310;2023-07-30T02:07:38;5.83;;;5.30;;
5379;SDS011;2713;42.680;23.310;2023-07-30T02:10:05;5.40;;;4.90;;
5379;SDS011;2713;42.680;23.310;2023-07-30T02:12:32;5.40;;;4.90;;
5379;SDS011;2713;42.680;23.310;2023-07-30T02:15:00;4.80;;;4.40;;
5379;SDS011;2713;42.680;23.310;2023-07-30T02:17:27;4.50;;;4.10;;
5379;SDS011;2713;42.680;23.310;2023-07-30T02:19:54;5.30;;;4.90;;
5379;SDS011;2713;42.680;23.310;2023-07-30T02:22:21;5.07;;;4.67;;
5379;SDS011;2713;42.680;23.310;2023-07-30T02:24:47;6.53;;;5.10;;
5379;SDS011;2713;42.680;23.310;2023-07-30T02:27:14;5.03;;;4.63;;
5379;SDS011;2713;42.680;23.310;2023-07-30T02:29:41;5.40;;;4.90;;
5379;SDS011;2713;42.680;23.310;2023-07-30T02:32:09;4.50;;;4.10;;
5379;SDS011;2713;42.680;23.310;2023-07-30T02:34:36;5.17;;;4.67;;
5379;SDS011;2713;42.680;23.310;2023-07-30T02:37:03;5.40;;;4.67;;
5379;SDS011;2713;42.680;23.310;2023-07-30T02:39:30;5.30;;;4.80;;
5379;SDS011;2713;42.680;23.310;2023-07-30T02:41:57;7.60;;;4.60;;
5379;SDS011;2713;42.680;23.310;2023-07-30T02:44:24;4.70;;;4.30;;
5379;SDS011;2713;42.680;23.310;2023-07-30T02:46:50;6.00;;;4.47;;
5379;SDS011;2713;42.680;23.310;2023-07-30T02:49:19;4.83;;;4.40;;
5379;SDS011;2713;42.680;23.310;2023-07-30T02:51:45;4.83;;;4.43;;
5379;SDS011;2713;42.680;23.310;2023-07-30T02:54:14;5.23;;;4.23;;
5379;SDS011;2713;42.680;23.310;2023-07-30T02:56:42;5.40;;;4.17;;
5379;SDS011;2713;42.680;23.310;2023-07-30T02:59:09;4.93;;;4.53;;
5379;SDS011;2713;42.680;23.310;2023-07-30T03:01:36;4.80;;;4.40;;
5379;SDS011;2713;42.680;23.310;2023-07-30T03:04:03;4.53;;;4.13;;
5379;SDS011;2713;42.680;23.310;2023-07-30T03:06:32;4.93;;;4.53;;
5379;SDS011;2713;42.680;23.310;2023-07-30T03:08:58;6.03;;;4.50;;
5379;SDS011;2713;42.680;23.310;2023-07-30T03:11:25;5.03;;;4.57;;
5379;SDS011;2713;42.680;23.310;2023-07-30T03:13:52;4.70;;;4.30;;
5379;SDS011;2713;42.680;23.310;2023-07-30T03:16:19;5.10;;;4.30;;
5379;SDS011;2713;42.680;23.310;2023-07-30T03:18:45;6.30;;;4.60;;
5379;SDS011;2713;42.680;23.310;2023-07-30T03:21:12;5.53;;;5.03;;
5379;SDS011;2713;42.680;23.310;2023-07-30T03:23:40;4.93;;;4.53;;
5379;SDS011;2713;42.680;23.310;2023-07-30T03:26:09;5.40;;;5.00;;
5379;SDS011;2713;42.680;23.310;2023-07-30T03:28:36;5.07;;;4.70;;
5379;SDS011;2713;42.680;23.310;2023-07-30T03:31:03;5.10;;;4.70;;
5379;SDS011;2713;42.680;23.310;2023-07-30T03:33:30;6.10;;;5.60;;
5379;SDS011;2713;42.680;23.310;2023-07-30T03:35:57;5.30;;;4.90;;
5379;SDS011;2713;42.680;23.310;2023-07-30T03:38:24;5.40;;;4.90;;
5379;SDS011;2713;42.680;23.310;2023-07-30T03:40:52;4.90;;;4.50;;
5379;SDS011;2713;42.680;23.310;2023-07-30T03:43:19;4.97;;;4.50;;
5379;SDS011;2713;42.680;23.310;2023-07-30T03:45:46;4.80;;;4.37;;
5379;SDS011;2713;42.680;23.310;2023-07-30T03:48:14;5.47;;;4.97;;
5379;SDS011;2713;42.680;23.310;2023-07-30T03:50:40;4.97;;;4.57;;
5379;SDS011;2713;42.680;23.310;2023-07-30T03:53:07;5.87;;;5.10;;
5379;SDS011;2713;42.680;23.310;2023-07-30T03:55:34;5.90;;;5.27;;
5379;SDS011;2713;42.680;23.310;2023-07-30T03:58:02;4.83;;;4.43;;
5379;SDS011;2713;42.680;23.310;2023-07-30T04:00:29;5.27;;;4.77;;
5379;SDS011;2713;42.680;23.310;2023-07-30T04:02:56;5.43;;;4.93;;
5379;SDS011;2713;42.680;23.310;2023-07-30T04:05:22;5.20;;;4.53;;
5379;SDS011;2713;42.680;23.310;2023-07-30T04:07:49;5.03;;;4.63;;
5379;SDS011;2713;42.680;23.310;2023-07-30T04:10:16;5.10;;;4.70;;
5379;SDS011;2713;42.680;23.310;2023-07-30T04:12:43;7.10;;;5.37;;
5379;SDS011;2713;42.680;23.310;2023-07-30T04:15:11;5.60;;;5.00;;
5379;SDS011;2713;42.680;23.310;2023-07-30T04:17:38;5.30;;;4.80;;
5379;SDS011;2713;42.680;23.310;2023-07-30T04:20:05;5.60;;;5.10;;
5379;SDS011;2713;42.680;23.310;2023-07-30T04:22:33;6.07;;;5.00;;
5379;SDS011;2713;42.680;23.310;2023-07-30T04:24:59;6.67;;;6.17;;
5379;SDS011;2713;42.680;23.310;2023-07-30T04:27:26;6.77;;;5.83;;
5379;SDS011;2713;42.680;23.310;2023-07-30T04:29:53;6.70;;;5.20;;
5379;SDS011;2713;42.680;23.310;2023-07-30T04:32:21;6.30;;;5.70;;
5379;SDS011;2713;42.680;23.310;2023-07-30T04:34:49;5.87;;;5.37;;
5379;SDS011;2713;42.680;23.310;2023-07-30T04:37:16;6.13;;;5.43;;
5379;SDS011;2713;42.680;23.310;2023-07-30T04:39:43;6.30;;;5.70;;
5379;SDS011;2713;42.680;23.310;2023-07-30T04:42:10;7.17;;;5.80;;
5379;SDS011;2713;42.680;23.310;2023-07-30T04:44:38;5.90;;;5.40;;
5379;SDS011;2713;42.680;23.310;2023-07-30T04:47:10;8.07;;;6.30;;
5379;SDS011;2713;42.680;23.310;2023-07-30T04:49:39;6.53;;;5.87;;
5379;SDS011;2713;42.680;23.310;2023-07-30T04:52:06;6.20;;;5.70;;
5379;SDS011;2713;42.680;23.310;2023-07-30T04:54:33;6.13;;;5.07;;
5379;SDS011;2713;42.680;23.310;2023-07-30T04:57:01;7.07;;;5.47;;
5379;SDS011;2713;42.680;23.310;2023-07-30T04:59:28;5.67;;;5.27;;
5379;SDS011;2713;42.680;23.310;2023-07-30T05:01:55;7.97;;;6.00;;
5379;SDS011;2713;42.680;23.310;2023-07-30T05:04:22;5.83;;;5.23;;
5379;SDS011;2713;42.680;23.310;2023-07-30T05:06:50;7.73;;;5.90;;
5379;SDS011;2713;42.680;23.310;2023-07-30T05:09:17;8.67;;;6.13;;
5379;SDS011;2713;42.680;23.310;2023-07-30T05:11:44;6.33;;;5.73;;
5379;SDS011;2713;42.680;23.310;2023-07-30T05:14:10;6.13;;;5.63;;
5379;SDS011;2713;42.680;23.310;2023-07-30T05:16:37;6.50;;;6.00;;
5379;SDS011;2713;42.680;23.310;2023-07-30T05:19:04;6.20;;;5.63;;
5379;SDS011;2713;42.680;23.310;2023-07-30T05:21:31;6.23;;;5.70;;
5379;SDS011;2713;42.680;23.310;2023-07-30T05:23:59;8.50;;;6.37;;
5379;SDS011;2713;42.680;23.310;2023-07-30T05:26:25;8.93;;;5.27;;
5379;SDS011;2713;42.680;23.310;2023-07-30T05:28:52;6.67;;;6.07;;
5379;SDS011;2713;42.680;23.310;2023-07-30T05:31:19;8.17;;;6.10;;
5379;SDS011;2713;42.680;23.310;2023-07-30T05:33:46;6.43;;;5.83;;
5379;SDS011;2713;42.680;23.310;2023-07-30T05:36:12;7.23;;;6.57;;
5379;SDS011;2713;42.680;23.310;2023-07-30T05:38:39;6.30;;;5.80;;
5379;SDS011;2713;42.680;23.310;2023-07-30T05:41:07;7.07;;;6.33;;
5379;SDS011;2713;42.680;23.310;2023-07-30T05:43:34;6.30;;;5.80;;
5379;SDS011;2713;42.680;23.310;2023-07-30T05:46:01;10.70;;;6.63;;
5379;SDS011;2713;42.680;23.310;2023-07-30T05:48:27;6.20;;;5.63;;
5379;SDS011;2713;42.680;23.310;2023-07-30T05:50:54;5.50;;;5.00;;
5379;SDS011;2713;42.680;23.310;2023-07-30T05:53:21;6.30;;;5.80;;
5379;SDS011;2713;42.680;23.310;2023-07-30T05:55:48;5.83;;;5.43;;
5379;SDS011;2713;42.680;23.310;2023-07-30T05:58:16;5.97;;;5.23;;
5379;SDS011;2713;42.680;23.310;2023-07-30T06:00:43;5.27;;;4.87;;
5379;SDS011;2713;42.680;23.310;2023-07-30T06:03:09;5.30;;;4.90;;
5379;SDS011;2713;42.680;23.310;2023-07-30T06:05:38;5.23;;;4.83;;
5379;SDS011;2713;42.680;23.310;2023-07-30T06:08:06;6.00;;;5.40;;
5379;SDS011;2713;42.680;23.310;2023-07-30T06:10:34;5.53;;;5.07;;
5379;SDS011;2713;42.680;23.310;2023-07-30T06:13:01;5.40;;;4.90;;
5379;SDS011;2713;42.680;23.310;2023-07-30T06:15:31;5.77;;;5.27;;
5379;SDS011;2713;42.680;23.310;2023-07-30T06:18:00;5.43;;;4.70;;
5379;SDS011;2713;42.680;23.310;2023-07-30T06:20:28;5.27;;;4.77;;
5379;SDS011;2713;42.680;23.310;2023-07-30T06:22:55;5.47;;;5.07;;
5379;SDS011;2713;42.680;23.310;2023-07-30T06:25:22;5.70;;;5.20;;
5379;SDS011;2713;42.680;23.310;2023-07-30T06:27:48;5.93;;;5.43;;
5379;SDS011;2713;42.680;23.310;2023-07-30T06:30:16;5.67;;;5.17;;
5379;SDS011;2713;42.680;23.310;2023-07-30T06:32:44;5.63;;;5.13;;
5379;SDS011;2713;42.680;23.310;2023-07-30T06:35:11;5.23;;;4.73;;
5379;SDS011;2713;42.680;23.310;2023-07-30T06:37:38;8.20;;;5.33;;
5379;SDS011;2713;42.680;23.310;2023-07-30T06:40:05;6.00;;;5.27;;
5379;SDS011;2713;42.680;23.310;2023-07-30T06:42:33;5.50;;;5.03;;
5379;SDS011;2713;42.680;23.310;2023-07-30T06:45:00;6.83;;;6.27;;
5379;SDS011;2713;42.680;23.310;2023-07-30T06:47:27;6.63;;;5.20;;
5379;SDS011;2713;42.680;23.310;2023-07-30T06:49:55;5.63;;;5.13;;
5379;SDS011;2713;42.680;23.310;2023-07-30T06:52:21;6.67;;;5.30;;
5379;SDS011;2713;42.680;23.310;2023-07-30T06:54:48;5.70;;;5.30;;
5379;SDS011;2713;42.680;23.310;2023-07-30T06:57:15;5.67;;;5.17;;
5379;SDS011;2713;42.680;23.310;2023-07-30T06:59:42;5.30;;;4.87;;
5379;SDS011;2713;42.680;23.310;2023-07-30T07:02:09;6.17;;;5.57;;
5379;SDS011;2713;42.680;23.310;2023-07-30T07:04:35;6.23;;;5.60;;
5379;SDS011;2713;42.680;23.310;2023-07-30T07:07:04;5.80;;;5.23;;
5379;SDS011;2713;42.680;23.310;2023-07-30T07:09:31;6.70;;;5.57;;
5379;SDS011;2713;42.680;23.310;2023-07-30T07:11:58;6.13;;;5.70;;
5379;SDS011;2713;42.680;23.310;2023-07-30T07:14:24;6.37;;;5.87;;
5379;SDS011;2713;42.680;23.310;2023-07-30T07:16:52;6.60;;;5.97;;
5379;SDS011;2713;42.680;23.310;2023-07-30T07:19:21;5.90;;;5.40;;
5379;SDS011;2713;42.680;23.310;2023-07-30T07:21:48;6.40;;;5.90;;
5379;SDS011;2713;42.680;23.310;2023-07-30T07:24:16;6.30;;;5.27;;
5379;SDS011;2713;42.680;23.310;2023-07-30T07:26:43;6.37;;;5.77;;
5379;SDS011;2713;42.680;23.310;2023-07-30T07:29:10;7.10;;;5.60;;
5379;SDS011;2713;42.680;23.310;2023-07-30T07:31:37;5.90;;;5.50;;
5379;SDS011;2713;42.680;23.310;2023-07-30T07:34:03;5.87;;;5.37;;
5379;SDS011;2713;42.680;23.310;2023-07-30T07:36:30;6.57;;;5.87;;
5379;SDS011;2713;42.680;23.310;2023-07-30T07:38:57;6.83;;;5.50;;
5379;SDS011;2713;42.680;23.310;2023-07-30T07:41:25;5.80;;;5.40;;
5379;SDS011;2713;42.680;23.310;2023-07-30T07:43:52;6.00;;;5.50;;
5379;SDS011;2713;42.680;23.310;2023-07-30T07:46:19;6.63;;;5.27;;
5379;SDS011;2713;42.680;23.310;2023-07-30T07:48:46;5.57;;;5.07;;
5379;SDS011;2713;42.680;23.310;2023-07-30T07:51:13;5.40;;;4.90;;
5379;SDS011;2713;42.680;23.310;2023-07-30T07:53:40;5.27;;;4.77;;
5379;SDS011;2713;42.680;23.310;2023-07-30T07:56:06;6.10;;;5.50;;
5379;SDS011;2713;42.680;23.310;2023-07-30T07:58:35;5.60;;;5.10;;
5379;SDS011;2713;42.680;23.310;2023-07-30T08:01:02;5.70;;;5.30;;
5379;SDS011;2713;42.680;23.310;2023-07-30T08:03:28;5.70;;;5.20;;
5379;SDS011;2713;42.680;23.310;2023-07-30T08:05:55;5.77;;;5.30;;
5379;SDS011;2713;42.680;23.310;2023-07-30T08:08:23;7.80;;;5.10;;
5379;SDS011;2713;42.680;23.310;2023-07-30T08:10:50;7.43;;;5.13;;
5379;SDS011;2713;42.680;23.310;2023-07-30T08:13:17;5.87;;;5.37;;
5379;SDS011;2713;42.680;23.310;2023-07-30T08:15:45;6.17;;;5.67;;
5379;SDS011;2713;42.680;23.310;2023-07-30T08:18:12;5.67;;;5.23;;
5379;SDS011;2713;42.680;23.310;2023-07-30T08:20:39;6.03;;;5.47;;
5379;SDS011;2713;42.680;23.310;2023-07-30T08:23:06;5.57;;;5.10;;
5379;SDS011;2713;42.680;23.310;2023-07-30T08:25:33;4.77;;;4.43;;
5379;SDS011;2713;42.680;23.310;2023-07-30T08:27:59;5.80;;;5.30;;
5379;SDS011;2713;42.680;23.310;2023-07-30T08:30:26;5.60;;;5.20;;
5379;SDS011;2713;42.680;23.310;2023-07-30T08:32:54;4.73;;;4.43;;
5379;SDS011;2713;42.680;23.310;2023-07-30T08:35:21;5.60;;;5.20;;
5379;SDS011;2713;42.680;23.310;2023-07-30T08:37:48;5.30;;;4.90;;
5379;SDS011;2713;42.680;23.310;2023-07-30T08:40:15;5.67;;;5.27;;
5379;SDS011;2713;42.680;23.310;2023-07-30T08:42:41;5.30;;;4.90;;
5379;SDS011;2713;42.680;23.310;2023-07-30T08:45:09;6.03;;;5.50;;
5379;SDS011;2713;42.680;23.310;2023-07-30T08:47:36;5.10;;;4.70;;
5379;SDS011;2713;42.680;23.310;2023-07-30T08:50:06;5.73;;;5.20;;
5379;SDS011;2713;42.680;23.310;2023-07-30T08:52:33;5.60;;;5.10;;
5379;SDS011;2713;42.680;23.310;2023-07-30T08:55:02;5.57;;;5.17;;
5379;SDS011;2713;42.680;23.310;2023-07-30T08:57:29;6.40;;;5.20;;
5379;SDS011;2713;42.680;23.310;2023-07-30T09:00:00;5.80;;;5.30;;
5379;SDS011;2713;42.680;23.310;2023-07-30T09:02:30;6.10;;;5.50;;
5379;SDS011;2713;42.680;23.310;2023-07-30T09:05:03;7.93;;;5.30;;
5379;SDS011;2713;42.680;23.310;2023-07-30T09:07:32;5.77;;;5.27;;
5379;SDS011;2713;42.680;23.310;2023-07-30T09:09:59;5.50;;;5.10;;
5379;SDS011;2713;42.680;23.310;2023-07-30T09:12:28;6.10;;;5.60;;
5379;SDS011;2713;42.680;23.310;2023-07-30T09:14:55;6.13;;;5.63;;
5379;SDS011;2713;42.680;23.310;2023-07-30T09:17:22;6.63;;;5.60;;
5379;SDS011;2713;42.680;23.310;2023-07-30T09:19:50;5.90;;;5.23;;
5379;SDS011;2713;42.680;23.310;2023-07-30T09:22:25;6.53;;;5.50;;
5379;SDS011;2713;42.680;23.310;2023-07-30T09:24:52;5.60;;;5.10;;
5379;SDS011;2713;42.680;23.310;2023-07-30T09:27:20;4.90;;;4.50;;
5379;SDS011;2713;42.680;23.310;2023-07-30T09:29:50;5.73;;;5.10;;
5379;SDS011;2713;42.680;23.310;2023-07-30T09:32:18;6.90;;;5.30;;
5379;SDS011;2713;42.680;23.310;2023-07-30T09:34:45;5.03;;;4.63;;
5379;SDS011;2713;42.680;23.310;2023-07-30T09:37:13;4.80;;;4.50;;
5379;SDS011;2713;42.680;23.310;2023-07-30T09:39:41;5.80;;;5.30;;
5379;SDS011;2713;42.680;23.310;2023-07-30T09:42:08;5.30;;;4.90;;
5379;SDS011;2713;42.680;23.310;2023-07-30T09:44:36;5.27;;;4.80;;
5379;SDS011;2713;42.680;23.310;2023-07-30T09:47:04;6.10;;;5.37;;
5379;SDS011;2713;42.680;23.310;2023-07-30T09:49:35;5.50;;;5.10;;
5379;SDS011;2713;42.680;23.310;2023-07-30T09:52:02;5.33;;;4.93;;
5379;SDS011;2713;42.680;23.310;2023-07-30T09:54:30;5.80;;;5.30;;
5379;SDS011;2713;42.680;23.310;2023-07-30T09:56:59;5.20;;;4.80;;
5379;SDS011;2713;42.680;23.310;2023-07-30T09:59:26;7.80;;;5.50;;
5379;SDS011;2713;42.680;23.310;2023-07-30T10:01:53;6.60;;;6.00;;
5379;SDS011;2713;42.680;23.310;2023-07-30T10:04:22;6.07;;;5.57;;
5379;SDS011;2713;42.680;23.310;2023-07-30T10:06:49;6.20;;;5.47;;
5379;SDS011;2713;42.680;23.310;2023-07-30T10:09:21;5.50;;;5.10;;
5379;SDS011;2713;42.680;23.310;2023-07-30T10:11:51;5.97;;;5.40;;
5379;SDS011;2713;42.680;23.310;2023-07-30T10:14:22;5.87;;;5.37;;
5379;SDS011;2713;42.680;23.310;2023-07-30T10:16:50;5.70;;;5.30;;
5379;SDS011;2713;42.680;23.310;2023-07-30T10:19:21;5.60;;;5.20;;
5379;SDS011;2713;42.680;23.310;2023-07-30T10:21:49;6.07;;;5.57;;
5379;SDS011;2713;42.680;23.310;2023-07-30T10:24:15;9.30;;;6.30;;
5379;SDS011;2713;42.680;23.310;2023-07-30T10:26:42;6.07;;;5.57;;
5379;SDS011;2713;42.680;23.310;2023-07-30T10:29:12;6.00;;;5.50;;
5379;SDS011;2713;42.680;23.310;2023-07-30T10:31:42;6.40;;;5.80;;
5379;SDS011;2713;42.680;23.310;2023-07-30T10:34:10;5.93;;;5.53;;
5379;SDS011;2713;42.680;23.310;2023-07-30T10:36:41;5.40;;;5.00;;
5379;SDS011;2713;42.680;23.310;2023-07-30T10:39:10;5.33;;;4.93;;
5379;SDS011;2713;42.680;23.310;2023-07-30T10:41:38;6.47;;;5.87;;
5379;SDS011;2713;42.680;23.310;2023-07-30T10:44:06;5.90;;;5.50;;
5379;SDS011;2713;42.680;23.310;2023-07-30T10:46:32;6.03;;;5.63;;
5379;SDS011;2713;42.680;23.310;2023-07-30T10:49:03;6.20;;;5.60;;
5379;SDS011;2713;42.680;23.310;2023-07-30T10:51:31;5.80;;;5.40;;
5379;SDS011;2713;42.680;23.310;2023-07-30T10:53:59;5.57;;;5.17;;
5379;SDS011;2713;42.680;23.310;2023-07-30T10:56:26;5.83;;;5.33;;
5379;SDS011;2713;42.680;23.310;2023-07-30T10:58:53;7.37;;;6.63;;
5379;SDS011;2713;42.680;23.310;2023-07-30T11:01:23;6.43;;;5.93;;
5379;SDS011;2713;42.680;23.310;2023-07-30T11:03:50;5.50;;;5.10;;
5379;SDS011;2713;42.680;23.310;2023-07-30T11:06:22;6.20;;;5.60;;
5379;SDS011;2713;42.680;23.310;2023-07-30T11:08:49;5.70;;;5.30;;
5379;SDS011;2713;42.680;23.310;2023-07-30T11:11:16;6.23;;;5.50;;
5379;SDS011;2713;42.680;23.310;2023-07-30T11:13:46;7.07;;;6.47;;
5379;SDS011;2713;42.680;23.310;2023-07-30T11:16:13;7.60;;;6.10;;
5379;SDS011;2713;42.680;23.310;2023-07-30T11:18:42;6.43;;;5.83;;
5379;SDS011;2713;42.680;23.310;2023-07-30T11:21:12;6.70;;;6.20;;
5379;SDS011;2713;42.680;23.310;2023-07-30T11:23:41;6.30;;;5.80;;
5379;SDS011;2713;42.680;23.310;2023-07-30T11:26:12;6.50;;;6.10;;
5379;SDS011;2713;42.680;23.310;2023-07-30T11:28:40;6.30;;;5.80;;
5379;SDS011;2713;42.680;23.310;2023-07-30T11:31:07;6.83;;;6.20;;
5379;SDS011;2713;42.680;23.310;2023-07-30T11:33:35;6.37;;;5.80;;
5379;SDS011;2713;42.680;23.310;2023-07-30T11:36:05;6.30;;;5.90;;
5379;SDS011;2713;42.680;23.310;2023-07-30T11:38:33;6.63;;;6.10;;
5379;SDS011;2713;42.680;23.310;2023-07-30T11:41:02;9.43;;;6.70;;
5379;SDS011;2713;42.680;23.310;2023-07-30T11:43:30;6.90;;;6.30;;
5379;SDS011;2713;42.680;23.310;2023-07-30T11:46:07;7.00;;;6.50;;
5379;SDS011;2713;42.680;23.310;2023-07-30T11:48:38;7.70;;;6.80;;
5379;SDS011;2713;42.680;23.310;2023-07-30T11:51:06;7.40;;;6.70;;
5379;SDS011;2713;42.680;23.310;2023-07-30T11:56:24;7.87;;;7.10;;
5379;SDS011;2713;42.680;23.310;2023-07-30T11:58:53;7.03;;;6.43;;
5379;SDS011;2713;42.680;23.310;2023-07-30T12:01:22;6.73;;;6.23;;
5379;SDS011;2713;42.680;23.310;2023-07-30T12:03:50;7.13;;;6.53;;
5379;SDS011;2713;42.680;23.310;2023-07-30T12:06:19;7.37;;;6.77;;
5379;SDS011;2713;42.680;23.310;2023-07-30T12:08:48;7.77;;;7.03;;
5379;SDS011;2713;42.680;23.310;2023-07-30T12:11:15;7.40;;;6.80;;
5379;SDS011;2713;42.680;23.310;2023-07-30T12:13:47;7.90;;;7.10;;
5379;SDS011;2713;42.680;23.310;2023-07-30T12:16:15;7.40;;;6.80;;
5379;SDS011;2713;42.680;23.310;2023-07-30T12:18:42;7.10;;;6.50;;
5379;SDS011;2713;42.680;23.310;2023-07-30T12:21:09;7.23;;;6.67;;
5379;SDS011;2713;42.680;23.310;2023-07-30T12:23:37;7.73;;;7.00;;
5379;SDS011;2713;42.680;23.310;2023-07-30T12:26:04;6.73;;;6.13;;
5379;SDS011;2713;42.680;23.310;2023-07-30T12:28:31;7.00;;;6.40;;
5379;SDS011;2713;42.680;23.310;2023-07-30T12:31:00;7.30;;;6.70;;
5379;SDS011;2713;42.680;23.310;2023-07-30T12:33:27;6.70;;;6.20;;
5379;SDS011;2713;42.680;23.310;2023-07-30T12:35:54;8.70;;;6.97;;
5379;SDS011;2713;42.680;23.310;2023-07-30T12:38:21;7.10;;;6.60;;
5379;SDS011;2713;42.680;23.310;2023-07-30T12:40:48;6.93;;;6.40;;
5379;SDS011;2713;42.680;23.310;2023-07-30T12:43:15;7.70;;;7.10;;
5379;SDS011;2713;42.680;23.310;2023-07-30T12:45:45;7.30;;;6.70;;
5379;SDS011;2713;42.680;23.310;2023-07-30T12:48:14;6.97;;;6.40;;
5379;SDS011;2713;42.680;23.310;2023-07-30T12:50:41;7.43;;;6.83;;
5379;SDS011;2713;42.680;23.310;2023-07-30T12:53:07;7.93;;;7.33;;
5379;SDS011;2713;42.680;23.310;2023-07-30T12:55:34;6.43;;;5.93;;
5379;SDS011;2713;42.680;23.310;2023-07-30T12:58:02;7.97;;;7.13;;
5379;SDS011;2713;42.680;23.310;2023-07-30T13:00:29;7.20;;;6.60;;
5379;SDS011;2713;42.680;23.310;2023-07-30T13:02:56;7.13;;;6.53;;
5379;SDS011;2713;42.680;23.310;2023-07-30T13:05:24;7.73;;;7.13;;
5379;SDS011;2713;42.680;23.310;2023-07-30T13:07:51;7.37;;;6.73;;
5379;SDS011;2713;42.680;23.310;2023-07-30T13:10:18;7.93;;;7.23;;
5379;SDS011;2713;42.680;23.310;2023-07-30T13:12:45;7.90;;;7.30;;
5379;SDS011;2713;42.680;23.310;2023-07-30T13:15:11;7.80;;;7.10;;
5379;SDS011;2713;42.680;23.310;2023-07-30T13:17:38;7.67;;;7.03;;
5379;SDS011;2713;42.680;23.310;2023-07-30T13:20:05;7.37;;;6.77;;
5379;SDS011;2713;42.680;23.310;2023-07-30T13:22:34;7.50;;;6.80;;
5379;SDS011;2713;42.680;23.310;2023-07-30T13:25:01;10.70;;;7.57;;
5379;SDS011;2713;42.680;23.310;2023-07-30T13:27:28;8.90;;;8.10;;
5379;SDS011;2713;42.680;23.310;2023-07-30T13:29:55;7.70;;;7.10;;
5379;SDS011;2713;42.680;23.310;2023-07-30T13:32:22;7.50;;;6.83;;
5379;SDS011;2713;42.680;23.310;2023-07-30T13:34:49;9.53;;;7.30;;
5379;SDS011;2713;42.680;23.310;2023-07-30T13:37:15;7.83;;;7.00;;
5379;SDS011;2713;42.680;23.310;2023-07-30T13:39:44;8.03;;;7.37;;
5379;SDS011;2713;42.680;23.310;2023-07-30T13:42:10;9.13;;;7.10;;
5379;SDS011;2713;42.680;23.310;2023-07-30T13:44:37;8.40;;;7.60;;
5379;SDS011;2713;42.680;23.310;2023-07-30T13:47:04;8.00;;;7.20;;
5379;SDS011;2713;42.680;23.310;2023-07-30T13:49:31;7.60;;;7.00;;
5379;SDS011;2713;42.680;23.310;2023-07-30T13:51:58;7.87;;;7.20;;
5379;SDS011;2713;42.680;23.310;2023-07-30T13:54:25;7.97;;;7.27;;
5379;SDS011;2713;42.680;23.310;2023-07-30T13:56:53;7.70;;;7.10;;
5379;SDS011;2713;42.680;23.310;2023-07-30T13:59:20;7.60;;;6.90;;
5379;SDS011;2713;42.680;23.310;2023-07-30T14:01:47;7.97;;;7.27;;
5379;SDS011;2713;42.680;23.310;2023-07-30T14:04:13;8.73;;;7.17;;
5379;SDS011;2713;42.680;23.310;2023-07-30T14:06:40;7.93;;;7.23;;
5379;SDS011;2713;42.680;23.310;2023-07-30T14:09:07;7.43;;;6.83;;
5379;SDS011;2713;42.680;23.310;2023-07-30T14:11:34;8.27;;;7.43;;
5379;SDS011;2713;42.680;23.310;2023-07-30T14:14:04;7.93;;;7.33;;
5379;SDS011;2713;42.680;23.310;2023-07-30T14:16:31;7.47;;;6.87;;
5379;SDS011;2713;42.680;23.310;2023-07-30T14:18:58;9.20;;;6.93;;
5379;SDS011;2713;42.680;23.310;2023-07-30T14:21:24;8.00;;;7.40;;
5379;SDS011;2713;42.680;23.310;2023-07-30T14:23:51;7.33;;;6.70;;
5379;SDS011;2713;42.680;23.310;2023-07-30T14:26:18;8.00;;;7.40;;
5379;SDS011;2713;42.680;23.310;2023-07-30T14:28:45;8.07;;;7.27;;
5379;SDS011;2713;42.680;23.310;2023-07-30T14:31:13;7.50;;;6.70;;
5379;SDS011;2713;42.680;23.310;2023-07-30T14:33:40;7.73;;;6.93;;
5379;SDS011;2713;42.680;23.310;2023-07-30T14:36:07;7.27;;;6.67;;
5379;SDS011;2713;42.680;23.310;2023-07-30T14:38:36;7.80;;;7.10;;
5379;SDS011;2713;42.680;23.310;2023-07-30T14:41:03;7.53;;;6.83;;
5379;SDS011;2713;42.680;23.310;2023-07-30T14:43:31;8.13;;;7.43;;
5379;SDS011;2713;42.680;23.310;2023-07-30T14:45:57;8.20;;;7.40;;
5379;SDS011;2713;42.680;23.310;2023-07-30T14:48:25;8.10;;;7.40;;
5379;SDS011;2713;42.680;23.310;2023-07-30T14:50:53;8.33;;;7.50;;
5379;SDS011;2713;42.680;23.310;2023-07-30T14:53:20;8.17;;;7.40;;
5379;SDS011;2713;42.680;23.310;2023-07-30T14:55:47;8.00;;;7.30;;
5379;SDS011;2713;42.680;23.310;2023-07-30T14:58:14;8.47;;;7.67;;
5379;SDS011;2713;42.680;23.310;2023-07-30T15:00:41;8.40;;;7.50;;
5379;SDS011;2713;42.680;23.310;2023-07-30T15:03:09;8.20;;;7.40;;
5379;SDS011;2713;42.680;23.310;2023-07-30T15:05:38;7.90;;;7.07;;